createdAt,value
2023-04-23T00:01:58.441Z,99152.41
2023-04-23T00:05:06.336Z,99145.97
2023-04-23T00:08:10.573Z,99152.56
2023-04-23T00:11:12.747Z,99155.63
2023-04-23T00:14:14.891Z,99149.47
2023-04-23T00:17:16.690Z,99148.06
2023-04-23T00:20:18.749Z,99145.47
2023-04-23T00:23:21.373Z,99144.28
2023-04-23T00:26:23.295Z,99149.88
2023-04-23T00:29:25.746Z,99147.41
2023-04-23T00:36:09.338Z,99152.09
2023-04-23T00:39:11.632Z,99144.50
2023-04-23T00:42:13.963Z,99146.59
2023-04-23T00:45:16.796Z,99146.59
2023-04-23T00:48:19.014Z,99139.09
2023-04-23T00:51:24.586Z,99147.97
2023-04-23T00:54:27.426Z,99132.78
2023-04-23T00:57:29.439Z,99135.47
2023-04-23T01:00:31.341Z,99140.81
2023-04-23T01:03:36.761Z,99142.19
2023-04-23T01:06:39.077Z,99142.44
2023-04-23T01:09:41.640Z,99139.16
2023-04-23T01:12:43.657Z,99137.59
2023-04-23T01:15:45.667Z,99131.50
2023-04-23T01:18:47.704Z,99137.63
2023-04-23T01:21:50.705Z,99140.09
2023-04-23T01:24:53.055Z,99134.91
2023-04-23T01:27:55.742Z,99138.19
2023-04-23T01:30:59.166Z,99137.06
2023-04-23T01:51:55.208Z,99140.94
2023-04-23T02:01:17.555Z,99137.16
2023-04-23T02:04:20.302Z,99145.63
2023-04-23T02:07:22.337Z,99148.22
2023-04-23T02:10:25.786Z,99146.47
2023-04-23T02:13:27.735Z,99147.75
2023-04-23T02:16:29.801Z,99148.91
2023-04-23T02:19:34.557Z,99153.34
2023-04-23T02:22:39.214Z,99145.50
2023-04-23T02:25:43.464Z,99145.69
2023-04-23T02:28:46.497Z,99144.75
2023-04-23T02:31:48.554Z,99140.31
2023-04-23T02:34:50.613Z,99140.69
2023-04-23T02:37:54.470Z,99142.91
2023-04-23T02:40:56.470Z,99132.22
2023-04-23T02:43:58.847Z,99132.34
2023-04-23T02:47:01.303Z,99126.81
2023-04-23T02:50:06.084Z,99129.97
2023-04-23T02:53:08.313Z,99125.53
2023-04-23T02:56:10.287Z,99132.81
2023-04-23T02:59:12.377Z,99131.03
2023-04-23T03:02:14.620Z,99134.88
2023-04-23T03:05:16.599Z,99125.34
2023-04-23T03:08:18.633Z,99131.38
2023-04-23T03:11:21.244Z,99135.59
2023-04-23T03:14:23.381Z,99135.59
2023-04-23T03:17:25.584Z,99129.16
2023-04-23T03:20:28.478Z,99129.59
2023-04-23T03:23:30.505Z,99131.56
2023-04-23T03:26:32.580Z,99128.13
2023-04-23T03:29:34.788Z,99129.53
2023-04-23T03:32:36.869Z,99128.75
2023-04-23T03:35:38.769Z,99134.84
2023-04-23T03:38:45.875Z,99129.63
2023-04-23T03:41:48.131Z,99134.84
2023-04-23T03:44:51.870Z,99129.75
2023-04-23T03:47:53.931Z,99128.81
2023-04-23T03:50:56.004Z,99132.50
2023-04-23T03:54:10.828Z,99133.03
2023-04-23T03:57:30.527Z,99129.56
2023-04-23T04:00:48.143Z,99128.78
2023-04-23T04:03:50.375Z,99143.28
2023-04-23T04:06:52.475Z,99149.13
2023-04-23T04:09:54.313Z,99139.72
2023-04-23T04:13:00.149Z,99139.84
2023-04-23T04:16:02.041Z,99148.06
2023-04-23T04:19:03.985Z,99141.84
2023-04-23T04:22:07.063Z,99153.84
2023-04-23T04:25:09.754Z,99150.41
2023-04-23T04:28:12.032Z,99148.78
2023-04-23T04:31:16.047Z,99156.97
2023-04-23T04:34:18.388Z,99143.09
2023-04-23T04:37:21.385Z,99160.25
2023-04-23T04:40:23.320Z,99159.59
2023-04-23T04:43:25.159Z,99157.72
2023-04-23T04:46:29.320Z,99160.56
2023-04-23T04:49:31.304Z,99169.50
2023-04-23T04:52:33.308Z,99169.72
2023-04-23T04:55:35.226Z,99161.72
2023-04-23T04:58:37.135Z,99170.78
2023-04-23T05:01:39.131Z,99168.78
2023-04-23T05:04:41.381Z,99170.13
2023-04-23T05:07:43.612Z,99168.44
2023-04-23T05:10:45.877Z,99172.25
2023-04-23T05:13:48.307Z,99164.69
2023-04-23T05:16:50.369Z,99174.50
2023-04-23T05:19:52.461Z,99178.84
2023-04-23T05:22:54.997Z,99163.78
2023-04-23T05:25:58.439Z,99178.31
2023-04-23T05:29:00.374Z,99180.56
2023-04-23T05:32:02.664Z,99179.88
2023-04-23T05:35:05.356Z,99170.25
2023-04-23T05:38:07.385Z,99176.00
2023-04-23T05:41:09.334Z,99176.66
2023-04-23T05:44:11.260Z,99176.97
2023-04-23T05:47:14.329Z,99175.06
2023-04-23T05:50:16.461Z,99180.31
2023-04-23T05:53:18.516Z,99186.09
2023-04-23T05:56:21.038Z,99191.91
2023-04-23T05:59:23.355Z,99193.56
2023-04-23T06:02:25.852Z,99194.38
2023-04-23T06:05:27.889Z,99198.50
2023-04-23T06:08:29.944Z,99197.47
2023-04-23T06:11:36.062Z,99201.09
2023-04-23T06:14:38.103Z,99196.78
2023-04-23T06:17:40.385Z,99199.84
2023-04-23T06:20:43.695Z,99194.66
2023-04-23T06:23:45.694Z,99196.56
2023-04-23T06:26:48.079Z,99193.28
2023-04-23T06:29:54.176Z,99187.97
2023-04-23T06:32:56.687Z,99198.50
2023-04-23T06:35:58.544Z,99192.22
2023-04-23T06:39:00.484Z,99196.03
2023-04-23T06:42:03.006Z,99190.53
2023-04-23T06:45:22.062Z,99191.06
2023-04-23T06:48:25.896Z,99184.81
2023-04-23T06:51:27.921Z,99195.91
2023-04-23T06:54:29.848Z,99194.09
2023-04-23T06:57:31.745Z,99190.50
2023-04-23T07:00:34.024Z,99189.53
2023-04-23T07:03:37.086Z,99189.28
2023-04-23T07:06:39.055Z,99196.09
2023-04-23T07:09:41.853Z,99191.19
2023-04-23T07:12:43.818Z,99191.75
2023-04-23T07:15:46.524Z,99196.19
2023-04-23T07:18:49.659Z,99193.78
2023-04-23T07:21:53.409Z,99195.97
2023-04-23T07:24:55.363Z,99188.47
2023-04-23T07:27:57.417Z,99191.53
2023-04-23T07:30:59.446Z,99194.81
2023-04-23T07:34:01.510Z,99189.66
2023-04-23T07:37:03.857Z,99190.88
2023-04-23T07:40:08.022Z,99186.50
2023-04-23T07:43:10.142Z,99197.44
2023-04-23T07:46:12.563Z,99200.22
2023-04-23T07:49:14.858Z,99196.44
2023-04-23T07:52:17.174Z,99199.16
2023-04-23T07:55:20.478Z,99199.41
2023-04-23T07:58:23.165Z,99197.88
2023-04-23T08:01:25.478Z,99183.22
2023-04-23T08:04:27.964Z,99195.31
2023-04-23T08:07:30.164Z,99197.25
2023-04-23T08:10:32.354Z,99197.22
2023-04-23T08:13:34.492Z,99202.69
2023-04-23T08:16:38.742Z,99200.59
2023-04-23T08:19:41.254Z,99207.56
2023-04-23T08:22:43.525Z,99204.44
2023-04-23T08:25:45.607Z,99201.66
2023-04-23T08:28:47.524Z,99199.00
2023-04-23T08:31:49.571Z,99190.63
2023-04-23T08:34:51.791Z,99184.97
2023-04-23T08:37:53.661Z,99190.69
2023-04-23T08:40:57.750Z,99188.59
2023-04-23T08:44:07.631Z,99189.06
2023-04-23T08:47:12.482Z,99194.25
2023-04-23T08:50:20.011Z,99190.50
2023-04-23T08:53:25.829Z,99190.88
2023-04-23T08:56:28.278Z,99192.88
2023-04-23T08:59:32.064Z,99186.59
2023-04-23T09:02:40.061Z,99184.81
2023-04-23T09:05:42.430Z,99168.13
2023-04-23T09:08:45.654Z,99179.44
2023-04-23T09:11:47.772Z,99186.72
2023-04-23T09:14:51.073Z,99177.47
2023-04-23T09:17:53.048Z,99176.91
2023-04-23T09:20:55.804Z,99179.25
2023-04-23T09:23:58.403Z,99179.22
2023-04-23T09:27:00.291Z,99180.22
2023-04-23T09:30:05.204Z,99160.66
2023-04-23T09:33:07.289Z,99177.22
2023-04-23T09:36:15.371Z,99172.75
2023-04-23T09:39:22.434Z,99174.38
2023-04-23T09:42:24.798Z,99174.72
2023-04-23T09:45:29.934Z,99173.94
2023-04-23T09:48:43.835Z,99168.72
2023-04-23T09:51:47.788Z,99166.78
2023-04-23T09:54:49.948Z,99165.00
2023-04-23T09:57:53.177Z,99161.56
2023-04-23T10:01:07.521Z,99151.81
2023-04-23T10:04:12.667Z,99151.28
2023-04-23T10:07:20.204Z,99151.59
2023-04-23T10:10:22.509Z,99145.53
2023-04-23T10:13:25.835Z,99143.84
2023-04-23T10:16:32.985Z,99137.94
2023-04-23T10:19:43.604Z,99135.97
2023-04-23T10:22:46.711Z,99128.72
2023-04-23T10:25:48.816Z,99136.13
2023-04-23T10:28:54.298Z,99131.97
2023-04-23T10:31:59.414Z,99127.50
2023-04-23T10:35:01.480Z,99119.75
2023-04-23T10:38:04.515Z,99122.88
2023-04-23T10:41:08.376Z,99120.63
2023-04-23T10:44:17.245Z,99127.38
2023-04-23T10:47:20.768Z,99126.22
2023-04-23T10:50:30.120Z,99123.84
2023-04-23T10:53:32.249Z,99128.31
2023-04-23T10:56:34.243Z,99119.63
2023-04-23T10:59:40.044Z,99118.84
2023-04-23T11:02:45.192Z,99122.78
2023-04-23T11:05:47.317Z,99111.22
2023-04-23T11:08:56.703Z,99105.81
2023-04-23T11:12:00.142Z,99112.06
2023-04-23T11:15:16.150Z,99110.03
2023-04-23T11:18:18.136Z,99105.69
2023-04-23T11:21:20.287Z,99105.88
2023-04-23T11:24:23.852Z,99106.59
2023-04-23T11:27:25.954Z,99100.72
2023-04-23T11:30:29.659Z,99098.00
2023-04-23T11:33:31.732Z,99092.47
2023-04-23T11:36:34.632Z,99097.44
2023-04-23T11:39:44.266Z,99091.97
2023-04-23T11:42:49.498Z,99085.75
2023-04-23T11:45:51.514Z,99089.41
2023-04-23T11:48:53.676Z,99090.31
2023-04-23T11:51:55.712Z,99075.78
2023-04-23T11:55:03.077Z,99071.56
2023-04-23T11:58:05.082Z,99080.91
2023-04-23T12:01:08.042Z,99072.16
2023-04-23T12:04:20.522Z,99073.75
2023-04-23T12:07:32.633Z,99063.00
2023-04-23T12:10:43.817Z,99060.53
2023-04-23T12:13:45.883Z,99053.66
2023-04-23T12:16:52.457Z,99057.19
2023-04-23T12:19:54.629Z,99053.97
2023-04-23T12:23:03.750Z,99055.38
2023-04-23T12:26:11.605Z,99050.50
2023-04-23T12:29:13.948Z,99043.13
2023-04-23T12:32:15.927Z,99046.03
2023-04-23T12:35:17.970Z,99041.47
2023-04-23T12:38:30.186Z,99044.38
2023-04-23T12:41:33.619Z,99027.13
2023-04-23T12:44:37.740Z,99035.81
2023-04-23T12:47:41.620Z,99020.28
2023-04-23T12:50:46.425Z,99021.81
2023-04-23T12:53:48.287Z,99016.91
2023-04-23T12:56:50.219Z,99022.63
2023-04-23T12:59:52.222Z,99026.16
2023-04-23T13:02:56.228Z,99018.44
2023-04-23T13:05:58.432Z,99015.47
2023-04-23T13:09:03.435Z,99008.81
2023-04-23T13:12:05.623Z,99005.91
2023-04-23T13:15:09.211Z,99003.13
2023-04-23T13:18:11.096Z,98995.69
2023-04-23T13:21:13.043Z,98994.63
2023-04-23T13:24:15.167Z,98979.56
2023-04-23T13:27:17.092Z,98983.63
2023-04-23T13:30:19.783Z,98988.81
2023-04-23T13:33:21.837Z,98981.78
2023-04-23T13:36:25.001Z,98989.19
2023-04-23T13:39:26.988Z,98982.00
2023-04-23T13:42:28.930Z,98987.19
2023-04-23T13:45:30.895Z,98981.81
2023-04-23T13:48:33.485Z,98981.81
2023-04-23T13:51:36.211Z,98969.69
2023-04-23T13:54:39.295Z,98975.56
2023-04-23T13:57:41.272Z,98971.66
2023-04-23T14:00:43.700Z,98963.91
2023-04-23T14:03:46.083Z,98965.63
2023-04-23T14:06:47.940Z,98971.50
2023-04-23T14:09:52.783Z,98967.41
2023-04-23T14:12:55.593Z,98961.06
2023-04-23T14:15:57.612Z,98950.22
2023-04-23T14:18:59.503Z,98947.31
2023-04-23T14:22:01.439Z,98955.63
2023-04-23T14:25:09.707Z,98960.00
2023-04-23T14:28:34.119Z,98948.38
2023-04-23T14:31:38.158Z,98948.03
2023-04-23T14:34:40.374Z,98950.97
2023-04-23T14:37:45.352Z,98948.03
2023-04-23T14:40:47.564Z,98939.69
2023-04-23T14:43:49.482Z,98939.13
2023-04-23T14:46:51.365Z,98938.19
2023-04-23T14:49:53.877Z,98933.63
2023-04-23T14:52:56.034Z,98930.53
2023-04-23T14:55:58.777Z,98925.16
2023-04-23T14:59:01.796Z,98921.69
2023-04-23T15:02:04.051Z,98933.09
2023-04-23T15:05:25.856Z,98929.00
2023-04-23T15:08:47.646Z,98929.38
2023-04-23T15:12:35.230Z,98926.75
2023-04-23T15:16:02.410Z,98923.03
2023-04-23T15:19:24.448Z,98923.19
2023-04-23T15:22:49.352Z,98916.75
2023-04-23T15:26:11.213Z,98919.19
2023-04-23T15:29:32.980Z,98919.59
2023-04-23T15:32:57.972Z,98911.53
2023-04-23T15:36:19.784Z,98919.19
2023-04-23T15:39:41.870Z,98917.16
2023-04-23T15:43:03.815Z,98904.59
2023-04-23T15:46:25.670Z,98909.38
2023-04-23T15:49:48.612Z,98896.38
2023-04-23T15:52:50.616Z,98899.28
2023-04-23T15:55:52.620Z,98898.53
2023-04-23T15:58:54.627Z,98899.19
2023-04-23T16:02:17.932Z,98898.63
2023-04-23T16:05:39.996Z,98894.84
2023-04-23T16:08:41.862Z,98892.94
2023-04-23T16:11:43.800Z,98883.81
2023-04-23T16:14:46.066Z,98881.66
2023-04-23T16:17:48.839Z,98881.59
2023-04-23T16:20:50.974Z,98880.44
2023-04-23T16:23:52.873Z,98881.00
2023-04-23T16:26:55.094Z,98883.50
2023-04-23T16:47:53.963Z,98871.56
2023-04-23T16:50:57.691Z,98876.91
2023-04-23T16:54:00.197Z,98877.03
2023-04-23T16:57:04.375Z,98865.44
2023-04-23T17:00:06.928Z,98871.19
2023-04-23T17:03:09.505Z,98869.25
2023-04-23T17:06:13.072Z,98863.69
2023-04-23T17:09:15.075Z,98863.72
2023-04-23T17:12:17.346Z,98855.69
2023-04-23T17:15:19.463Z,98857.75
2023-04-23T17:18:21.512Z,98856.56
2023-04-23T17:21:24.115Z,98856.69
2023-04-23T17:24:26.141Z,98849.00
2023-04-23T17:27:28.404Z,98850.56
2023-04-23T17:30:30.522Z,98846.06
2023-04-23T17:33:33.508Z,98840.75
2023-04-23T17:36:35.995Z,98857.69
2023-04-23T17:39:38.352Z,98863.81
2023-04-23T17:42:40.340Z,98859.66
2023-04-23T17:45:43.187Z,98859.03
2023-04-23T17:48:45.434Z,98856.31
2023-04-23T17:51:47.907Z,98861.16
2023-04-23T17:54:50.057Z,98849.41
2023-04-23T17:57:52.470Z,98849.00
2023-04-23T18:00:55.168Z,98856.97
2023-04-23T18:03:57.666Z,98858.63
2023-04-23T18:06:59.967Z,98856.06
2023-04-23T18:10:03.380Z,98870.91
2023-04-23T18:13:07.278Z,98861.38
2023-04-23T18:16:09.454Z,98861.97
2023-04-23T18:19:11.928Z,98857.06
2023-04-23T18:22:14.015Z,98869.25
2023-04-23T18:25:15.999Z,98869.97
2023-04-23T18:28:18.075Z,98873.84
2023-04-23T18:31:20.124Z,98875.88
2023-04-23T18:34:23.820Z,98867.59
2023-04-23T18:37:38.307Z,98875.84
2023-04-23T18:40:40.474Z,98873.94
2023-04-23T18:43:43.118Z,98882.44
2023-04-23T18:46:45.809Z,98875.31
2023-04-23T18:50:02.859Z,98881.66
2023-04-23T18:53:05.334Z,98874.28
2023-04-23T18:56:14.860Z,98878.94
2023-04-23T18:59:18.687Z,98871.97
2023-04-23T19:02:34.416Z,98875.53
2023-04-23T19:05:37.723Z,98875.13
2023-04-23T19:08:42.023Z,98871.84
2023-04-23T19:11:45.191Z,98873.78
2023-04-23T19:14:47.470Z,98878.00
2023-04-23T19:17:49.639Z,98881.97
2023-04-23T19:20:52.746Z,98884.28
2023-04-23T19:23:56.508Z,98877.22
2023-04-23T19:26:58.398Z,98886.91
2023-04-23T19:30:01.150Z,98881.88
2023-04-23T19:33:04.398Z,98882.69
2023-04-23T19:36:06.588Z,98878.97
2023-04-23T19:39:10.366Z,98876.53
2023-04-23T19:42:12.708Z,98873.66
2023-04-23T19:45:17.731Z,98880.22
2023-04-23T19:48:20.706Z,98879.66
2023-04-23T19:51:27.952Z,98875.84
2023-04-23T19:54:30.557Z,98875.03
2023-04-23T19:57:32.702Z,98874.44
2023-04-23T20:00:41.485Z,98869.09
2023-04-23T20:03:47.677Z,98868.56
2023-04-23T20:06:49.672Z,98869.94
2023-04-23T20:09:51.939Z,98869.34
2023-04-23T20:12:53.821Z,98867.53
2023-04-23T20:15:55.751Z,98861.03
2023-04-23T20:18:58.067Z,98865.00
2023-04-23T20:22:07.695Z,98862.66
2023-04-23T20:25:10.197Z,98863.34
2023-04-23T20:28:12.483Z,98860.88
2023-04-23T20:31:14.860Z,98858.53
2023-04-23T20:34:17.257Z,98863.19
2023-04-23T20:37:21.714Z,98857.59
2023-04-23T20:40:24.988Z,98861.81
2023-04-23T20:43:27.440Z,98854.28
2023-04-23T20:46:32.989Z,98864.94
2023-04-23T20:49:35.244Z,98862.50
2023-04-23T20:52:37.334Z,98866.56
2023-04-23T20:55:39.177Z,98861.38
2023-04-23T20:58:42.104Z,98858.09
2023-04-23T21:01:44.136Z,98851.78
2023-04-23T21:04:46.082Z,98856.72
2023-04-23T21:07:50.781Z,98864.63
2023-04-23T21:10:52.819Z,98854.94
2023-04-23T21:13:55.874Z,98859.44
2023-04-23T21:16:57.811Z,98853.13
2023-04-23T21:19:59.741Z,98845.44
2023-04-23T21:23:01.844Z,98847.66
2023-04-23T21:26:03.867Z,98846.81
2023-04-23T21:29:05.792Z,98852.00
2023-04-23T21:32:09.334Z,98839.19
2023-04-23T21:35:11.606Z,98842.56
2023-04-23T21:38:13.855Z,98839.28
2023-04-23T21:41:15.815Z,98832.56
2023-04-23T21:44:18.010Z,98826.84
2023-04-23T21:47:19.951Z,98829.56
2023-04-23T21:50:22.143Z,98835.28
2023-04-23T21:53:25.167Z,98833.91
2023-04-23T21:56:27.280Z,98825.00
2023-04-23T21:59:29.162Z,98833.84
2023-04-23T22:02:32.524Z,98833.97
2023-04-23T22:05:36.262Z,98827.28
2023-04-23T22:08:40.393Z,98836.19
2023-04-23T22:11:49.091Z,98827.81
2023-04-23T22:15:03.149Z,98834.03
2023-04-23T22:18:05.484Z,98832.69
2023-04-23T22:21:07.766Z,98831.72
2023-04-23T22:24:09.642Z,98825.94
2023-04-23T22:27:11.613Z,98829.75
2023-04-23T22:30:13.917Z,98822.59
2023-04-23T22:33:15.856Z,98824.78
2023-04-23T22:36:17.782Z,98820.53
2023-04-23T22:39:20.018Z,98828.59
2023-04-23T22:42:21.983Z,98818.75
2023-04-23T22:45:23.862Z,98818.38
2023-04-23T22:48:27.837Z,98810.53
2023-04-23T22:51:33.522Z,98806.97
2023-04-23T22:54:35.625Z,98809.56
2023-04-23T22:57:37.544Z,98807.00
2023-04-23T23:00:39.521Z,98804.13
2023-04-23T23:03:41.650Z,98798.44
2023-04-23T23:06:43.700Z,98788.91
2023-04-23T23:09:45.602Z,98795.97
2023-04-23T23:12:47.547Z,98791.22
2023-04-23T23:15:49.859Z,98791.84
2023-04-23T23:18:51.815Z,98787.84
2023-04-23T23:21:53.934Z,98787.53
2023-04-23T23:24:55.994Z,98788.69
2023-04-23T23:27:57.801Z,98795.03
2023-04-23T23:30:59.853Z,98787.06
2023-04-23T23:34:02.521Z,98784.56
2023-04-23T23:37:04.610Z,98787.88
2023-04-23T23:40:07.331Z,98777.41
2023-04-23T23:43:09.318Z,98778.13
2023-04-23T23:46:11.259Z,98779.88
2023-04-23T23:49:14.412Z,98783.03
2023-04-23T23:52:16.452Z,98777.03
2023-04-23T23:55:18.911Z,98773.44
2023-04-23T23:58:21.740Z,98768.16
